createdAt,value
2023-03-17T00:00:11.386Z,75.68
2023-03-17T00:08:05.216Z,76.36
2023-03-17T00:13:37.304Z,77.68
2023-03-17T00:19:09.521Z,75.79
2023-03-17T00:24:41.820Z,77.16
2023-03-17T00:30:13.714Z,78.03
2023-03-17T00:35:45.458Z,79.85
2023-03-17T00:41:17.493Z,77.70
2023-03-17T00:46:49.431Z,80.52
2023-03-17T00:52:20.862Z,81.84
2023-03-17T00:57:52.687Z,81.70
2023-03-17T01:03:24.803Z,81.31
2023-03-17T01:08:56.398Z,82.07
2023-03-17T01:14:28.371Z,79.11
2023-03-17T01:19:59.871Z,79.14
2023-03-17T01:25:31.666Z,78.70
2023-03-17T01:31:03.643Z,80.91
2023-03-17T01:36:35.163Z,79.71
2023-03-17T01:42:06.969Z,79.21
2023-03-17T01:47:38.466Z,78.33
2023-03-17T01:53:09.985Z,78.75
2023-03-17T01:58:41.998Z,79.39
2023-03-17T02:04:13.694Z,78.57
2023-03-17T02:09:45.457Z,81.59
2023-03-17T02:15:17.409Z,82.10
2023-03-17T02:20:49.605Z,79.51
2023-03-17T02:26:22.080Z,79.89
2023-03-17T02:31:54.135Z,80.66
2023-03-17T02:37:25.839Z,80.89
2023-03-17T02:48:28.270Z,83.75
2023-03-17T02:54:00.345Z,84.36
2023-03-17T02:59:32.835Z,84.08
2023-03-17T03:05:04.716Z,83.64
2023-03-17T03:10:36.633Z,85.21
2023-03-17T03:16:08.094Z,83.02
2023-03-17T03:22:04.498Z,82.64
2023-03-17T03:27:36.528Z,84.39
2023-03-17T03:33:08.478Z,84.43
2023-03-17T03:38:40.118Z,83.32
2023-03-17T03:44:11.952Z,83.68
2023-03-17T03:49:43.871Z,84.30
2023-03-17T03:55:15.726Z,84.27
2023-03-17T04:00:47.839Z,84.21
2023-03-17T04:06:19.410Z,84.13
2023-03-17T04:11:51.702Z,84.98
2023-03-17T04:17:23.379Z,84.80
2023-03-17T04:22:55.923Z,84.77
2023-03-17T04:28:27.981Z,83.15
2023-03-17T04:34:00.004Z,82.76
2023-03-17T04:39:32.106Z,83.15
2023-03-17T04:45:04.230Z,84.26
2023-03-17T04:50:36.072Z,83.63
2023-03-17T04:56:07.396Z,84.05
2023-03-17T05:01:39.337Z,83.28
2023-03-17T05:07:11.051Z,84.21
2023-03-17T05:12:42.853Z,83.72
2023-03-17T05:18:14.792Z,81.20
2023-03-17T05:23:46.641Z,80.42
2023-03-17T05:29:18.888Z,80.33
2023-03-17T05:34:50.790Z,80.41
2023-03-17T05:40:23.929Z,80.11
2023-03-17T05:45:54.435Z,79.86
2023-03-17T05:51:26.331Z,80.98
2023-03-17T05:56:58.128Z,81.05
2023-03-17T06:02:29.875Z,80.02
2023-03-17T06:08:01.756Z,79.71
2023-03-17T06:13:33.823Z,78.19
2023-03-17T06:19:05.746Z,76.24
2023-03-17T06:24:37.627Z,73.89
2023-03-17T06:30:09.289Z,72.75
2023-03-17T06:35:41.706Z,74.49
2023-03-17T06:41:13.661Z,72.46
2023-03-17T06:46:45.412Z,75.45
2023-03-17T06:52:16.949Z,73.76
2023-03-17T06:57:50.935Z,71.36
2023-03-17T07:05:42.759Z,67.45
2023-03-17T07:11:14.350Z,66.54
2023-03-17T07:22:15.870Z,64.21
2023-03-17T07:27:47.976Z,61.41
2023-03-17T07:33:19.878Z,63.15
2023-03-17T07:38:51.565Z,61.23
2023-03-17T07:44:23.238Z,58.85
2023-03-17T07:49:55.301Z,56.87
2023-03-17T07:55:26.991Z,55.36
2023-03-17T08:00:58.960Z,54.85
2023-03-17T08:06:30.372Z,54.52
2023-03-17T08:12:02.683Z,55.10
2023-03-17T08:17:34.758Z,54.36
2023-03-17T08:23:06.531Z,54.54
2023-03-17T08:28:38.439Z,53.25
2023-03-17T08:34:11.013Z,51.55
2023-03-17T08:39:42.993Z,53.48
2023-03-17T08:45:15.082Z,54.51
2023-03-17T08:50:46.307Z,53.73
2023-03-17T08:56:18.165Z,51.55
2023-03-17T09:01:50.222Z,52.07
2023-03-17T09:07:22.384Z,52.41
2023-03-17T09:12:54.436Z,50.70
2023-03-17T09:18:26.315Z,50.52
2023-03-17T09:23:59.263Z,52.61
2023-03-17T09:29:29.771Z,48.99
2023-03-17T09:35:01.720Z,48.82
2023-03-17T09:40:34.223Z,47.26
2023-03-17T09:46:06.051Z,45.56
2023-03-17T09:51:38.126Z,48.64
2023-03-17T09:57:10.301Z,48.42
2023-03-17T10:02:42.458Z,48.63
2023-03-17T10:08:29.656Z,50.92
2023-03-17T10:13:46.321Z,49.75
2023-03-17T10:19:17.810Z,51.28
2023-03-17T10:24:49.604Z,48.92
2023-03-17T10:30:21.816Z,46.09
2023-03-17T10:35:54.265Z,45.33
2023-03-17T10:41:26.802Z,46.94
2023-03-17T10:46:58.547Z,45.34
2023-03-17T10:52:30.545Z,48.41
2023-03-17T10:58:02.588Z,46.26
2023-03-17T11:03:34.378Z,48.09
2023-03-17T11:09:05.886Z,46.63
2023-03-17T11:14:37.666Z,47.31
2023-03-17T11:20:09.359Z,43.81
2023-03-17T11:25:41.528Z,44.95
2023-03-17T11:31:13.861Z,47.29
2023-03-17T11:36:45.460Z,45.58
2023-03-17T11:42:17.229Z,46.72
2023-03-17T11:53:18.930Z,46.58
2023-03-17T11:58:50.729Z,46.32
2023-03-17T12:04:22.895Z,46.27
2023-03-17T12:09:54.928Z,46.29
2023-03-17T12:15:27.189Z,46.93
2023-03-17T12:20:59.421Z,48.09
2023-03-17T12:26:31.000Z,47.72
2023-03-17T12:32:03.215Z,48.02
2023-03-17T12:37:35.536Z,48.55
2023-03-17T12:45:30.071Z,46.89
2023-03-17T12:51:01.256Z,47.94
2023-03-17T12:56:33.495Z,45.66
2023-03-17T13:02:05.623Z,45.13
2023-03-17T13:07:38.048Z,46.55
2023-03-17T13:13:09.856Z,46.04
2023-03-17T13:18:41.505Z,47.00
2023-03-17T13:24:13.960Z,47.34
2023-03-17T13:29:45.823Z,46.96
2023-03-17T13:35:17.287Z,47.41
2023-03-17T13:40:48.934Z,47.42
2023-03-17T13:46:20.698Z,46.45
2023-03-17T13:51:59.486Z,47.31
2023-03-17T13:57:24.139Z,46.37
2023-03-17T14:03:19.812Z,47.12
2023-03-17T14:08:50.954Z,46.92
2023-03-17T14:14:32.086Z,46.39
2023-03-17T14:19:53.651Z,45.90
2023-03-17T14:25:25.162Z,46.79
2023-03-17T14:30:56.817Z,46.44
2023-03-17T14:36:28.159Z,44.61
2023-03-17T14:42:00.002Z,45.77
2023-03-17T14:47:32.076Z,46.61
2023-03-17T14:53:04.326Z,46.60
2023-03-17T14:58:35.978Z,48.09
2023-03-17T15:09:37.151Z,49.73
2023-03-17T15:15:09.386Z,49.20
2023-03-17T15:20:41.106Z,49.34
2023-03-17T15:26:13.350Z,50.40
2023-03-17T15:31:45.468Z,49.06
2023-03-17T15:37:17.508Z,50.76
2023-03-17T15:42:49.392Z,50.56
2023-03-17T15:48:20.908Z,50.41
2023-03-17T15:53:52.381Z,50.57
2023-03-17T15:59:23.562Z,50.96
2023-03-17T16:04:55.250Z,51.75
2023-03-17T16:10:26.820Z,51.90
2023-03-17T16:15:58.584Z,51.88
2023-03-17T16:21:30.189Z,50.63
2023-03-17T16:27:02.349Z,50.90
2023-03-17T16:32:34.146Z,50.92
2023-03-17T16:38:05.401Z,51.13
2023-03-17T16:43:37.350Z,51.79
2023-03-17T16:49:09.070Z,51.78
2023-03-17T16:54:40.971Z,51.76
2023-03-17T17:00:12.608Z,53.03
2023-03-17T17:05:44.642Z,53.71
2023-03-17T17:11:16.681Z,54.32
2023-03-17T17:16:48.449Z,53.72
2023-03-17T17:24:42.150Z,53.74
2023-03-17T17:30:14.114Z,55.07
2023-03-17T17:35:45.599Z,56.97
2023-03-17T17:41:17.277Z,57.21
2023-03-17T17:52:18.591Z,57.43
2023-03-17T17:57:52.383Z,57.05
2023-03-17T18:03:22.048Z,59.36
2023-03-17T18:08:54.267Z,59.07
2023-03-17T18:14:26.274Z,59.97
2023-03-17T18:19:58.637Z,59.99
2023-03-17T18:25:30.815Z,59.83
2023-03-17T18:31:03.303Z,60.93
2023-03-17T18:36:35.214Z,61.73
2023-03-17T18:42:07.093Z,61.74
2023-03-17T18:47:38.666Z,61.90
2023-03-17T18:53:10.261Z,61.22
2023-03-17T18:58:42.386Z,62.31
2023-03-17T19:04:13.872Z,63.00
2023-03-17T19:09:46.026Z,63.05
2023-03-17T19:15:17.914Z,61.92
2023-03-17T19:20:50.238Z,62.31
2023-03-17T19:26:22.151Z,62.56
2023-03-17T19:31:54.168Z,63.06
2023-03-17T19:37:26.252Z,63.63
2023-03-17T19:42:58.010Z,63.53
2023-03-17T19:48:29.749Z,64.53
2023-03-17T19:54:01.361Z,64.64
2023-03-17T19:59:33.312Z,63.56
2023-03-17T20:05:05.097Z,64.89
2023-03-17T20:10:37.437Z,65.94
2023-03-17T20:16:09.288Z,66.20
2023-03-17T20:21:41.044Z,66.96
2023-03-17T20:27:12.680Z,66.43
2023-03-17T20:32:44.815Z,67.74
2023-03-17T20:38:16.674Z,67.75
2023-03-17T20:43:48.270Z,68.24
2023-03-17T20:49:20.317Z,66.73
2023-03-17T20:54:51.926Z,68.10
2023-03-17T21:00:23.808Z,68.92
2023-03-17T21:05:55.370Z,69.89
2023-03-17T21:11:27.148Z,69.50
2023-03-17T21:16:58.720Z,69.47
2023-03-17T21:22:30.368Z,70.80
2023-03-17T21:28:02.571Z,70.79
2023-03-17T21:33:34.315Z,70.63
2023-03-17T21:39:06.300Z,69.09
2023-03-17T21:44:38.399Z,71.96
2023-03-17T21:50:10.589Z,71.42
2023-03-17T21:55:42.054Z,72.93
2023-03-17T22:01:14.205Z,73.17
2023-03-17T22:06:46.014Z,70.00
2023-03-17T22:12:17.883Z,72.69
2023-03-17T22:17:49.582Z,73.34
2023-03-17T22:23:21.762Z,73.41
2023-03-17T22:28:53.258Z,74.21
2023-03-17T22:34:25.990Z,74.39
2023-03-17T22:39:58.150Z,73.70
2023-03-17T22:45:29.950Z,74.85
2023-03-17T22:51:01.410Z,75.06
2023-03-17T22:56:33.374Z,75.27
2023-03-17T23:02:04.915Z,75.77
2023-03-17T23:07:48.017Z,75.99
2023-03-17T23:13:07.749Z,76.68
2023-03-17T23:18:39.373Z,77.35
2023-03-17T23:24:11.182Z,77.43
2023-03-17T23:29:43.048Z,78.12
2023-03-17T23:35:14.897Z,78.14
2023-03-17T23:40:46.538Z,77.99
2023-03-17T23:46:18.456Z,77.08
2023-03-17T23:51:50.733Z,77.44
2023-03-17T23:57:22.378Z,76.72
